Stunt Ranch Reserve, Santa Monica Mtns, California Weather observations

Data are for 10 minute period ending at time listed.
 Day   Time   Solar   Ave.   Ave.  Ave.  Vector  Max.   Baro.   Total    
  of    of     Rad.   Air    Rel.  Wind   Wind   Wind  Press.  Precip.   
Year   Day            Temp.  Hum.  Speed  Dir.   Gust                    
2014   (PST)  Kw/m2    F      %     mph   deg.    mph    mb.     in.     
-------------------------------------------------------------------------
 330   18:10   0.00   72.0    15    1.0   257     2.6   974.6    0.00 
 330   18:20   0.00   71.4    17    1.1   166     2.6   974.6    0.00 
 330   18:30   0.00   72.1    17    1.1   191     2.6   974.6    0.00 
 330   18:40   0.00   71.4    16    1.5   156     4.1   974.6    0.00 
 330   18:50   0.00   71.3    14    3.2   135     4.3   974.6    0.00 
 330   19:00   0.00   71.6    13    3.4   128     4.7   974.6    0.00 
 330   19:10   0.00   70.4    14    3.5   140     5.6   974.6    0.00 
 330   19:20   0.00   71.2    13    3.7   158     6.1   974.6    0.00 
 330   19:30   0.00   70.1    14    1.9   162     5.2   974.6    0.00 
 330   19:40   0.00   69.6    14    1.3   297     2.5   974.9    0.00 
 330   19:50   0.00   70.5    13    0.6   179     2.2   974.9    0.00 
 330   20:00   0.00   70.0    13    0.7   134     2.5   974.9    0.00 
 330   20:10   0.00   71.1    12    1.7   145     3.3   974.9    0.00 
 330   20:20   0.00   71.0    13    3.4   157     5.9   974.9    0.00 
 330   20:30   0.00   71.0    13    4.1   159     6.6   974.9    0.00 
 330   20:40   0.00   70.9    13    4.5   163     6.9   974.9    0.00 
 330   20:50   0.00   71.0    13    4.6   163     7.3   975.3    0.00 
 330   21:00   0.00   70.6    13    5.8   152     8.2   974.9    0.00 
 330   21:10   0.00   71.0    13    4.8   146     7.5   975.3    0.00 
 330   21:20   0.00   71.0    13    4.0   149     6.7   974.9    0.00 
 330   21:30   0.00   70.6    13    3.5   156     5.6   974.9    0.00 
 330   21:40   0.00   70.8    13    3.2   156     6.4   974.9    0.00 
 330   21:50   0.00   71.0    13    4.4   155     7.1   974.9    0.00 
 330   22:00   0.00   71.8    12    5.6   143     8.0   974.9    0.00 
 330   22:10   0.00   72.4    12    3.1   163     6.1   974.9    0.00 
 330   22:20   0.00   71.0    13    2.3   158     5.3   974.9    0.00 
 330   22:30   0.00   71.2    12    3.4   154     6.0   974.9    0.00 
 330   22:40   0.00   71.4    12    1.1   114     2.6   975.3    0.00 
 330   22:50   0.00   72.4    12    1.8   181     4.5   974.9    0.00 
 330   23:00   0.00   70.6    12    4.0   155     6.4   975.3    0.00 
 330   23:10   0.00   70.8    12    4.2   155     6.3   974.9    0.00 
 330   23:20   0.00   69.7    13    1.4   171     4.7   974.9    0.00 
 330   23:30   0.00   68.3    14    0.9    79     3.3   974.9    0.00 
 330   23:40   0.00   67.6    14    2.6    80     5.0   974.9    0.00 
 330   23:50   0.00   67.6    14    1.2    68     3.5   974.6    0.00 
 331    0:00   0.00   67.8    14    0.8   102     2.2   974.6    0.00 
 331    0:10   0.00   67.7    14    0.2   228     1.2   974.6    0.00 
 331    0:20   0.00   68.6    13    0.7   212     1.8   974.6    0.00 
 331    0:30   0.00   68.9    13    1.0   216     1.7   974.6    0.00 
 331    0:40   0.00   68.2    14    0.0     0     0.0   974.6    0.00 
 331    0:50   0.00   68.1    14    0.6   155     2.3   974.6    0.00 
 331    1:00   0.00   68.7    13    1.1   154     2.1   974.3    0.00 
 331    1:10   0.00   69.2    13    1.2   167     2.7   974.3    0.00 
 331    1:20   0.00   68.4    13    1.2   140     3.4   974.3    0.00 
 331    1:30   0.00   68.2    13    1.9   141     4.7   974.3    0.00 
 331    1:40   0.00   67.2    14    1.0   272     3.7   974.3    0.00 
 331    1:50   0.00   66.6    14    1.3   257     3.0   974.3    0.00 
 331    2:00   0.00   66.5    14    0.9   272     2.2   974.3    0.00 
 331    2:10   0.00   67.4    14    0.6    13     1.9   974.3    0.00 
 331    2:20   0.00   68.8    13    0.7   251     2.4   973.9    0.00 
 331    2:30   0.00   68.7    13    0.6   184     2.0   973.9    0.00 
 331    2:40   0.00   69.1    13    0.9   150     2.6   973.6    0.00 
 331    2:50   0.00   68.2    14    1.7   272     2.7   973.6    0.00 
 331    3:00   0.00   66.4    14    0.6    43     1.7   973.6    0.00 
 331    3:10   0.00   66.8    14    0.0   183     0.4   973.6    0.00 
 331    3:20   0.00   67.9    13    0.8   221     1.8   973.6    0.00 
 331    3:30   0.00   68.6    13    0.5   168     2.0   973.6    0.00 
 331    3:40   0.00   69.1    13    0.6   148     3.1   973.6    0.00 
 331    3:50   0.00   69.4    13    3.5   139     5.6   973.3    0.00 
 331    4:00   0.00   69.9    12    1.5    88     4.6   973.3    0.00 
 331    4:10   0.00   68.2    14    0.2   354     1.9   973.3    0.00 
 331    4:20   0.00   65.5    15    0.9   280     2.3   973.3    0.00 
 331    4:30   0.00   63.8    17    1.0    90     2.4   973.3    0.00 
 331    4:40   0.00   65.0    15    0.3   208     1.5   973.3    0.00 
 331    4:50   0.00   66.2    14    0.7   270     1.7   973.3    0.00 
 331    5:00   0.00   66.3    14    0.5   317     1.1   973.3    0.00 
 331    5:10   0.00   66.6    14    0.8   186     3.0   973.3    0.00 
 331    5:20   0.00   66.9    14    0.6   244     1.9   973.3    0.00 
 331    5:30   0.00   66.3    15    1.4   280     2.5   973.3    0.00 
 331    5:40   0.00   65.3    16    0.6   109     1.8   973.6    0.00 
 331    5:50   0.00   65.9    15    1.2   146     3.1   973.6    0.00 
 331    6:00   0.00   65.8    15    1.0   292     2.1   973.6    0.00 
 331    6:10   0.00   65.1    16    0.4   289     1.2   973.6    0.00 
 331    6:20   0.00   65.6    15    0.4   210     1.5   973.6    0.00 
 331    6:30   0.00   65.6    15    0.2   269     0.9   973.6    0.00 
 331    6:40   0.00   66.4    14    0.4   156     2.4   973.9    0.00 
 331    6:50   0.01   67.9    13    1.2   139     2.3   973.9    0.00 
 331    7:00   0.01   67.4    14    0.3   348     1.8   973.9    0.00 
 331    7:10   0.01   66.5    14    0.7   202     2.1   973.9    0.00 
 331    7:20   0.01   66.7    15    0.4   260     1.5   973.9    0.00 
 331    7:30   0.02   66.3    15    0.5   296     1.3   973.9    0.00 
 331    7:40   0.03   66.8    15    1.2   171     2.6   973.9    0.00 
 331    7:50   0.04   67.3    15    1.6   160     2.9   973.9    0.00 
 331    8:00   0.18   69.2    14    0.7   289     2.0   973.9    0.00 
 331    8:10   0.20   73.6    13    0.4   263     1.5   973.9    0.00 
 331    8:20   0.22   73.8    13    0.3     3     2.0   973.9    0.00 
 331    8:30   0.26   74.7    13    0.4     5     1.5   973.9    0.00 
 331    8:40   0.28   76.2    13    0.3    87     1.2   973.9    0.00 
 331    8:50   0.31   76.9    11    0.9   279     2.1   973.9    0.00 
 331    9:00   0.35   78.6    11    0.2   269     1.2   973.9    0.00 
 331    9:10   0.34   78.4    12    1.1   108     2.3   973.9    0.00 
 331    9:20   0.34   77.5    12    1.0   115     2.3   973.6    0.00 
 331    9:30   0.39   79.0    12    0.6    58     2.7   973.6    0.00 
 331    9:40   0.43   79.9    11    0.4    56     2.0   973.6    0.00 
 331    9:50   0.43   80.9    10    0.7     6     2.2   973.6    0.00 
 331   10:00   0.43   80.8    10    1.8   282     3.3   973.6    0.00 
 331   10:10   0.47   81.7     9    1.8   283     2.7   973.6    0.00 
 331   10:20   0.50   82.7     9    1.6   284     2.8   973.6    0.00 
 331   10:30   0.52   83.8     9    1.7   290     2.9   973.3    0.00 
 331   10:40   0.52   84.4     9    2.4   274     3.1   973.3    0.00 
 331   10:50   0.53   86.0     9    2.1   270     2.8   973.3    0.00 
 331   11:00   0.55   87.2     9    2.1   276     3.4   973.3    0.00 
 331   11:10   0.55   88.0     9    2.8   273     4.6   973.3    0.00 
 331   11:20   0.56   88.7     9    3.6   273     5.1   972.9    0.00 
 331   11:30   0.54   88.6     9    3.2   271     4.8   972.9    0.00 
 331   11:40   0.56   89.9     8    2.9   278     5.2   972.9    0.00 
 331   11:50   0.52   90.1     8    3.9   273     5.3   972.6    0.00 
 331   12:00   0.52   89.2     8    3.7   272     5.6   972.6    0.00 
 331   12:10   0.56   90.9     8    3.4   277     5.6   972.6    0.00 
 331   12:20   0.55   92.0     8    3.5   280     6.4   972.2    0.00 
 331   12:30   0.53   92.1     8    3.5   280     6.9   972.2    0.00 
 331   12:40   0.52   92.4     8    3.2   278     5.9   972.2    0.00 
 331   12:50   0.53   92.6     7    3.1   282     6.5   971.9    0.00 
 331   13:00   0.49   93.0     7    2.8   285     7.5   971.9    0.00 
 331   13:10   0.51   92.6     7    2.6   281     7.6   971.6    0.00 
 331   13:20   0.53   93.1     7    3.7   280     8.0   971.6    0.00 
 331   13:30   0.49   93.3     7    3.2   281     7.0   971.6    0.00 
 331   13:40   0.47   93.0     7    3.8   281     8.5   971.6    0.00 
 331   13:50   0.46   92.7     7    3.4   277     7.3   971.2    0.00 
 331   14:00   0.32   92.5     6    2.7   280     5.6   971.2    0.00 
 331   14:10   0.35   90.3     7    2.9   282     6.2   971.2    0.00 
 331   14:20   0.38   90.4     7    2.0   290     4.9   971.2    0.00 
 331   14:30   0.35   90.1     7    2.1   291     5.2   971.2    0.00 
 331   14:40   0.32   89.2     8    2.0   290     5.7   970.9    0.00 
 331   14:50   0.29   88.0     8    2.5   287     5.2   970.9    0.00 
 331   15:00   0.27   87.5     8    2.3   285     5.5   970.9    0.00 
 331   15:10   0.25   86.3     8    1.6   292     3.7   970.9    0.00 
 331   15:20   0.21   85.7     8    0.6   301     1.9   970.5    0.00 
 331   15:30   0.19   84.6     9    2.9   121     6.4   970.5    0.00 
 331   15:40   0.10   81.7    10    2.3    89     4.4   970.5    0.00 
 331   15:50   0.03   80.7    10    1.2    45     3.9   970.2    0.00 
 331   16:00   0.03   79.7    10    0.7   162     2.0   970.2    0.00 
 331   16:10   0.02   78.6    11    1.5   220     2.9   970.2    0.00 
 331   16:20   0.01   77.9    10    0.8   133     3.2   970.2    0.00 
 331   16:30   0.01   77.4    11    0.8   155     2.6   969.9    0.00 
 331   16:40   0.01   76.9    11    0.7   330     1.8   969.9    0.00 
 331   16:50   0.01   76.5    11    0.0   328     1.1   970.2    0.00 
 331   17:00   0.00   75.4    12    1.3   247     2.4   970.2    0.00 
 331   17:10   0.00   74.4    13    1.7   254     2.9   970.2    0.00 
 331   17:20   0.00   73.3    14    3.0   239     4.7   970.5    0.00 
 331   17:30   0.00   72.6    17    3.8   241     7.2   970.5    0.00 
 331   17:40   0.00   71.0    20    3.9   227     5.4   970.5    0.00 
 331   17:50   0.00   71.0    19    3.6   220     5.3   970.5    0.00 
 331   18:00   0.00   70.9    18    3.2   222     4.8   970.9    0.00 

Return to Stunt Ranch Reserve graphs page.


Western Regional Climate Center,wrcc@dri.edu